Time;durP1;ratioP1;P1;durP2;ratioP2;P2;SDS_P1;SDS_P2;PMS_P1;PMS_P2;Temp;Humidity;BMP_temperature;BMP_pressure;BME280_temperature;BME280_humidity;BME280_pressure;Samples;Min_cycle;Max_cycle;Signal;HPM_P1;HPM_P2
2020/12/03 00:02:05;;;;;;;25.70;14.45;;;6.30;92.10;;;;;;4974962;28;20474;-73
2020/12/03 00:04:31;;;;;;;27.88;14.63;;;6.30;92.10;;;;;;4978725;28;20069;-73
2020/12/03 00:07:00;;;;;;;24.52;14.40;;;6.30;92.20;;;;;;4983601;28;20109;-74
2020/12/03 00:09:25;;;;;;;30.10;14.52;;;6.30;92.20;;;;;;5046088;28;20118;-73
2020/12/03 00:11:55;;;;;;;28.80;13.85;;;6.30;92.30;;;;;;5030904;28;20137;-73
2020/12/03 00:14:21;;;;;;;26.38;15.38;;;6.30;92.30;;;;;;5013960;28;20036;-74
2020/12/03 00:16:48;;;;;;;27.65;14.65;;;6.30;92.30;;;;;;5014765;28;20034;-73
2020/12/03 00:19:16;;;;;;;23.20;14.73;;;6.30;92.30;;;;;;5034551;28;20099;-74
2020/12/03 00:21:46;;;;;;;34.55;14.68;;;6.30;92.30;;;;;;4996648;28;20461;-73
2020/12/03 00:24:17;;;;;;;27.02;14.05;;;6.30;92.40;;;;;;5004643;28;20125;-78
2020/12/03 00:26:42;;;;;;;25.63;15.00;;;6.30;92.40;;;;;;5013497;27;20061;-73
2020/12/03 00:29:08;;;;;;;25.67;15.20;;;6.30;92.40;;;;;;5059738;28;20048;-80
2020/12/03 00:31:34;;;;;;;26.15;14.90;;;6.30;92.40;;;;;;5036674;28;20361;-73
2020/12/03 00:34:02;;;;;;;23.73;13.88;;;6.30;92.40;;;;;;5033283;27;20042;-73
2020/12/03 00:36:28;;;;;;;28.40;15.10;;;6.40;92.40;;;;;;4994781;28;20045;-74
2020/12/03 00:38:53;;;;;;;27.17;13.52;;;6.30;92.40;;;;;;5029100;28;20038;-73
2020/12/03 00:41:20;;;;;;;21.98;13.85;;;6.40;92.40;;;;;;5015288;28;20429;-73
2020/12/03 00:43:46;;;;;;;23.25;14.35;;;6.40;92.40;;;;;;5044899;28;20473;-72
2020/12/03 00:46:12;;;;;;;26.05;13.85;;;6.40;92.50;;;;;;5012237;28;20076;-74
2020/12/03 00:48:37;;;;;;;25.95;14.25;;;6.40;92.50;;;;;;5017932;28;20450;-72
2020/12/03 00:51:03;;;;;;;24.10;14.13;;;6.40;92.50;;;;;;5020149;28;20030;-75
2020/12/03 00:53:28;;;;;;;26.38;14.50;;;6.40;92.50;;;;;;5008871;28;20031;-75
2020/12/03 00:55:54;;;;;;;24.65;13.82;;;6.40;92.40;;;;;;5046451;28;20040;-72
2020/12/03 00:58:20;;;;;;;24.42;14.00;;;6.40;92.40;;;;;;5045402;28;21642;-73
2020/12/03 01:00:45;;;;;;;23.85;14.00;;;6.40;92.50;;;;;;5006829;28;20034;-73
2020/12/03 01:03:11;;;;;;;21.80;13.82;;;6.40;92.50;;;;;;4994886;28;20074;-77
2020/12/03 01:05:37;;;;;;;26.40;16.05;;;6.40;92.40;;;;;;4987145;28;20131;-73
2020/12/03 01:08:04;;;;;;;20.92;14.50;;;6.50;92.40;;;;;;4976901;28;20031;-74
2020/12/03 01:10:34;;;;;;;25.45;15.65;;;6.40;92.40;;;;;;5005067;28;20497;-75
2020/12/03 01:13:01;;;;;;;22.30;14.48;;;6.40;92.40;;;;;;5024847;28;20046;-75
2020/12/03 01:15:27;;;;;;;28.48;14.98;;;6.50;92.40;;;;;;4994077;28;20073;-74
2020/12/03 01:17:53;;;;;;;26.63;15.13;;;6.50;92.50;;;;;;4976136;28;20043;-72
2020/12/03 01:20:23;;;;;;;25.98;15.88;;;6.50;92.40;;;;;;4971686;28;20486;-73
2020/12/03 01:22:49;;;;;;;26.15;15.48;;;6.40;92.40;;;;;;4977615;28;20051;-74
2020/12/03 01:25:17;;;;;;;24.38;15.88;;;6.50;92.50;;;;;;5000583;28;20047;-72
2020/12/03 01:27:43;;;;;;;27.38;16.35;;;6.40;92.60;;;;;;5024622;28;20382;-73
2020/12/03 01:30:10;;;;;;;24.90;15.40;;;6.40;92.60;;;;;;5025452;28;20042;-74
2020/12/03 01:32:36;;;;;;;23.02;15.35;;;6.50;92.60;;;;;;5011133;28;20030;-76
2020/12/03 01:35:04;;;;;;;22.50;15.02;;;6.40;92.60;;;;;;4999772;28;20516;-74
2020/12/03 01:37:30;;;;;;;22.83;15.38;;;6.40;92.60;;;;;;4981607;28;20035;-78
2020/12/03 01:39:55;;;;;;;24.40;15.02;;;6.40;92.60;;;;;;4988159;28;20044;-72
2020/12/03 01:42:21;;;;;;;25.98;14.90;;;6.50;92.60;;;;;;4975410;28;20035;-73
2020/12/03 01:44:50;;;;;;;26.75;15.52;;;6.50;92.60;;;;;;4982578;28;20027;-72
2020/12/03 01:47:31;;;;;;;24.70;15.35;;;6.50;92.50;;;;;;5020135;28;20123;-73
2020/12/03 01:49:58;;;;;;;24.88;15.75;;;6.50;92.50;;;;;;5060217;28;20030;-72
2020/12/03 01:52:24;;;;;;;23.27;15.40;;;6.50;92.50;;;;;;4979654;28;20398;-72
2020/12/03 01:54:50;;;;;;;26.75;16.17;;;6.50;92.40;;;;;;4986778;28;20043;-72
2020/12/03 01:57:53;;;;;;;29.05;15.90;;;6.50;92.40;;;;;;5004055;28;20086;-72
2020/12/03 02:00:20;;;;;;;23.13;15.52;;;6.50;92.30;;;;;;5018360;28;20117;-73
2020/12/03 02:02:49;;;;;;;28.20;15.43;;;6.50;92.40;;;;;;4979968;28;20043;-75
2020/12/03 02:05:20;;;;;;;26.55;16.50;;;6.50;92.50;;;;;;4983582;28;20081;-73
2020/12/03 02:07:46;;;;;;;25.55;16.25;;;6.50;92.40;;;;;;4993511;28;20114;-73
2020/12/03 02:10:16;;;;;;;25.30;15.77;;;6.50;92.50;;;;;;4991586;28;20482;-72
2020/12/03 02:12:41;;;;;;;21.13;14.07;;;6.50;92.50;;;;;;4984838;28;20034;-73
2020/12/03 02:15:08;;;;;;;22.38;14.90;;;6.50;92.40;;;;;;4984555;28;20438;-72
2020/12/03 02:17:34;;;;;;;21.85;14.73;;;6.50;92.40;;;;;;4990521;28;20023;-74
2020/12/03 02:20:03;;;;;;;28.00;15.43;;;6.50;92.40;;;;;;4989667;28;20389;-73
2020/12/03 02:22:28;;;;;;;25.75;15.02;;;6.50;92.40;;;;;;4980959;28;20065;-72
2020/12/03 02:24:54;;;;;;;21.90;14.00;;;6.50;92.40;;;;;;4973602;28;20033;-73
2020/12/03 02:27:23;;;;;;;19.27;14.32;;;6.60;92.30;;;;;;4985378;28;20034;-72
2020/12/03 02:29:49;;;;;;;25.80;14.85;;;6.60;92.30;;;;;;5002269;28;20115;-73
2020/12/03 02:32:16;;;;;;;22.48;15.48;;;6.60;92.20;;;;;;4991730;28;20129;-74
2020/12/03 02:34:42;;;;;;;23.52;15.27;;;6.50;92.20;;;;;;5000653;28;20035;-79
2020/12/03 02:37:08;;;;;;;25.05;15.77;;;6.50;92.20;;;;;;4991823;28;20444;-72
2020/12/03 02:39:35;;;;;;;22.45;17.05;;;6.50;92.20;;;;;;5007775;28;20054;-75
2020/12/03 02:42:03;;;;;;;26.88;16.02;;;6.50;92.30;;;;;;5014434;28;20040;-73
2020/12/03 02:44:29;;;;;;;25.95;16.58;;;6.50;92.20;;;;;;4996122;28;20030;-73
2020/12/03 02:46:55;;;;;;;26.38;17.92;;;6.50;92.20;;;;;;5046588;28;20471;-73
2020/12/03 02:49:20;;;;;;;24.50;16.60;;;6.50;92.20;;;;;;4998735;28;20043;-73
2020/12/03 02:51:46;;;;;;;23.60;17.38;;;6.50;92.20;;;;;;4991234;28;20051;-72
2020/12/03 02:54:13;;;;;;;28.05;17.80;;;6.50;92.10;;;;;;5021366;28;20038;-75
2020/12/03 02:56:39;;;;;;;22.02;17.40;;;6.60;92.20;;;;;;5007794;28;20047;-73
2020/12/03 02:59:06;;;;;;;24.23;16.92;;;6.60;92.20;;;;;;4978438;28;20023;-78
2020/12/03 03:01:33;;;;;;;24.10;18.10;;;6.50;92.20;;;;;;4994215;28;20448;-76
2020/12/03 03:04:02;;;;;;;23.95;17.70;;;6.50;92.10;;;;;;5012135;28;20126;-74
2020/12/03 03:06:29;;;;;;;30.75;18.35;;;6.50;92.30;;;;;;5007487;28;20453;-73
2020/12/03 03:08:54;;;;;;;24.73;17.40;;;6.50;92.20;;;;;;4987220;28;20562;-73
2020/12/03 03:11:20;;;;;;;27.90;17.63;;;6.50;92.10;;;;;;4985089;28;20446;-74
2020/12/03 03:13:45;;;;;;;23.25;17.60;;;6.50;92.10;;;;;;5001681;28;20348;-73
2020/12/03 03:16:11;;;;;;;25.10;17.50;;;6.50;92.20;;;;;;4998995;28;20420;-74
2020/12/03 03:18:37;;;;;;;24.98;18.48;;;6.50;92.10;;;;;;5034730;28;20055;-73
2020/12/03 03:21:02;;;;;;;25.17;17.95;;;6.50;92.10;;;;;;4982735;28;20373;-73
2020/12/03 03:23:28;;;;;;;25.08;18.67;;;6.60;92.10;;;;;;4999865;28;20035;-76
2020/12/03 03:25:53;;;;;;;21.67;17.75;;;6.60;92.00;;;;;;5018770;28;20105;-73
2020/12/03 03:28:19;;;;;;;22.15;17.58;;;6.60;92.00;;;;;;4987582;28;20378;-74
2020/12/03 03:30:45;;;;;;;23.02;18.75;;;6.60;92.10;;;;;;4980224;28;20046;-74
2020/12/03 03:33:10;;;;;;;25.83;19.30;;;6.50;92.00;;;;;;4986418;28;20125;-74
2020/12/03 03:35:36;;;;;;;24.70;20.25;;;6.60;92.10;;;;;;4985695;28;20436;-80
2020/12/03 03:38:02;;;;;;;24.15;17.85;;;6.60;92.10;;;;;;4996414;28;20158;-73
2020/12/03 03:40:28;;;;;;;25.00;19.25;;;6.50;92.10;;;;;;4973523;28;20067;-72
2020/12/03 03:42:54;;;;;;;22.75;19.00;;;6.60;92.10;;;;;;4995303;28;20465;-74
2020/12/03 03:45:19;;;;;;;26.05;18.88;;;6.60;92.10;;;;;;4989449;28;20039;-73
2020/12/03 03:47:45;;;;;;;25.95;19.33;;;6.60;92.20;;;;;;4984867;28;20084;-73
2020/12/03 03:50:11;;;;;;;27.25;19.27;;;6.50;92.10;;;;;;4976210;28;20116;-73
2020/12/03 03:52:37;;;;;;;27.88;18.95;;;6.60;92.10;;;;;;4980285;28;20042;-72
2020/12/03 03:55:06;;;;;;;29.52;18.52;;;6.50;92.10;;;;;;4987171;28;20057;-76
2020/12/03 03:57:32;;;;;;;24.90;18.40;;;6.50;92.00;;;;;;5012255;28;20072;-73
2020/12/03 03:59:58;;;;;;;24.98;18.55;;;6.50;92.10;;;;;;4993462;28;20457;-74
2020/12/03 04:02:24;;;;;;;27.17;20.42;;;6.50;92.00;;;;;;4997762;28;20411;-72
2020/12/03 04:04:51;;;;;;;25.55;18.98;;;6.50;92.00;;;;;;5001573;28;20030;-73
2020/12/03 04:07:18;;;;;;;26.45;18.23;;;6.60;91.90;;;;;;4984703;28;20042;-74
2020/12/03 04:09:45;;;;;;;28.30;18.95;;;6.50;91.80;;;;;;4989210;28;20068;-73
2020/12/03 04:12:11;;;;;;;23.30;17.08;;;6.50;91.90;;;;;;4989751;28;20053;-73
2020/12/03 04:14:37;;;;;;;25.15;18.10;;;6.50;91.80;;;;;;4969570;28;20038;-74
2020/12/03 04:17:03;;;;;;;24.02;17.60;;;6.50;91.80;;;;;;5006261;28;20028;-74
2020/12/03 04:19:28;;;;;;;26.27;18.48;;;6.50;91.70;;;;;;5030749;28;20043;-73
2020/12/03 04:21:54;;;;;;;27.50;17.83;;;6.50;91.70;;;;;;4999361;28;20476;-77
2020/12/03 04:24:20;;;;;;;25.60;18.75;;;6.50;91.80;;;;;;5008001;28;21000;-73
2020/12/03 04:26:46;;;;;;;24.17;17.52;;;6.50;91.80;;;;;;4983220;28;20027;-73
2020/12/03 04:29:14;;;;;;;26.60;17.98;;;6.50;91.90;;;;;;4983665;28;20030;-74
2020/12/03 04:31:41;;;;;;;26.90;17.70;;;6.50;92.00;;;;;;5001836;28;20495;-73
2020/12/03 04:34:07;;;;;;;26.63;18.77;;;6.40;92.00;;;;;;5014985;28;20051;-73
2020/12/03 04:36:33;;;;;;;25.67;18.42;;;6.40;92.00;;;;;;5009223;28;20418;-73
2020/12/03 04:38:58;;;;;;;26.40;20.17;;;6.40;92.00;;;;;;5033617;28;20044;-73
2020/12/03 04:41:24;;;;;;;27.67;18.70;;;6.40;92.10;;;;;;4980892;28;20487;-73
2020/12/03 04:44:01;;;;;;;29.05;19.27;;;6.40;92.10;;;;;;5015831;28;20045;-73
2020/12/03 04:46:39;;;;;;;25.13;18.20;;;6.40;92.10;;;;;;5025586;28;20038;-76
2020/12/03 04:49:25;;;;;;;23.10;18.10;;;6.40;92.10;;;;;;5001563;28;20032;-74
2020/12/03 04:52:24;;;;;;;28.15;19.65;;;6.40;92.10;;;;;;5010439;28;20077;-74
2020/12/03 04:55:13;;;;;;;24.95;18.27;;;6.40;92.10;;;;;;4989712;28;20035;-73
2020/12/03 04:57:58;;;;;;;30.02;19.15;;;6.30;92.10;;;;;;5017499;28;20531;-73
2020/12/03 05:00:33;;;;;;;;;;;6.30;92.20;;;;;;5018223;28;20061;-74
2020/12/03 05:03:18;;;;;;;25.10;18.20;;;6.30;92.40;;;;;;5037173;28;19924;-73
2020/12/03 05:06:16;;;;;;;25.55;18.73;;;6.30;92.30;;;;;;5004596;28;20444;-75
2020/12/03 05:08:59;;;;;;;29.95;19.00;;;6.30;92.30;;;;;;4971476;28;20057;-74
2020/12/03 05:11:38;;;;;;;26.55;19.13;;;6.30;92.40;;;;;;5017121;27;20027;-73
2020/12/03 05:14:11;;;;;;;25.70;19.83;;;6.20;92.40;;;;;;4999991;28;20161;-74
2020/12/03 05:16:51;;;;;;;24.40;19.95;;;6.20;92.40;;;;;;5004671;28;20060;-73
2020/12/03 05:19:47;;;;;;;31.70;21.05;;;6.20;92.40;;;;;;4984043;28;20031;-74
2020/12/03 05:22:21;;;;;;;29.38;20.55;;;6.20;92.50;;;;;;4991315;28;20030;-73
2020/12/03 05:24:47;;;;;;;28.02;21.85;;;6.20;92.40;;;;;;5000223;28;20034;-73
2020/12/03 05:27:28;;;;;;;28.73;21.38;;;6.20;92.50;;;;;;4992310;28;20022;-75
2020/12/03 05:29:55;;;;;;;26.67;21.05;;;6.20;92.60;;;;;;4993017;27;20042;-73
2020/12/03 05:32:21;;;;;;;31.42;21.90;;;6.20;92.60;;;;;;5002034;28;20140;-73
2020/12/03 05:34:47;;;;;;;30.23;22.90;;;6.20;92.60;;;;;;4990222;28;20047;-74
2020/12/03 05:37:15;;;;;;;32.80;22.40;;;6.20;92.60;;;;;;4988080;28;20125;-73
2020/12/03 05:40:18;;;;;;;27.45;21.35;;;6.10;92.60;;;;;;4986981;28;20047;-73
2020/12/03 05:42:44;;;;;;;28.58;21.10;;;6.20;92.60;;;;;;4992375;28;20066;-73
2020/12/03 05:45:15;;;;;;;32.70;21.83;;;6.20;92.60;;;;;;5015090;28;20071;-74
2020/12/03 05:47:46;;;;;;;32.88;21.88;;;6.20;92.60;;;;;;4981068;28;20149;-74
2020/12/03 05:50:29;;;;;;;28.98;21.25;;;6.20;92.60;;;;;;4993716;28;20039;-73
2020/12/03 05:53:05;;;;;;;31.67;23.05;;;6.20;92.50;;;;;;5039306;28;20040;-73
2020/12/03 05:55:32;;;;;;;30.17;22.48;;;6.20;92.60;;;;;;5037783;28;20040;-73
2020/12/03 05:58:16;;;;;;;30.08;22.00;;;6.20;92.60;;;;;;5039134;28;20072;-73
2020/12/03 06:00:43;;;;;;;27.83;21.65;;;6.20;92.50;;;;;;5041978;28;20494;-80
2020/12/03 06:03:21;;;;;;;30.50;22.10;;;6.20;92.60;;;;;;5000075;27;20042;-73
2020/12/03 06:06:07;;;;;;;33.60;22.70;;;6.20;92.60;;;;;;4988378;28;20043;-77
2020/12/03 06:08:52;;;;;;;31.13;21.83;;;6.20;92.50;;;;;;5005717;28;20030;-74
2020/12/03 06:11:47;;;;;;;31.55;22.92;;;6.20;92.40;;;;;;5006661;28;20056;-75
2020/12/03 06:14:13;;;;;;;31.17;23.57;;;6.20;92.50;;;;;;4989379;28;20046;-79
2020/12/03 06:16:59;;;;;;;29.48;22.15;;;6.20;92.50;;;;;;5008203;28;20060;-74
2020/12/03 06:20:12;;;;;;;34.15;23.35;;;6.20;92.50;;;;;;4982356;28;20038;-73
2020/12/03 06:22:49;;;;;;;32.20;25.30;;;6.20;92.50;;;;;;4988315;28;20051;-75
2020/12/03 06:25:29;;;;;;;30.73;22.92;;;6.20;92.50;;;;;;5008461;28;20043;-77
2020/12/03 06:28:12;;;;;;;27.15;22.13;;;6.20;92.50;;;;;;5003575;28;20037;-72
2020/12/03 06:30:43;;;;;;;30.60;23.23;;;6.20;92.40;;;;;;5011268;28;20123;-73
2020/12/03 06:33:21;;;;;;;30.10;23.52;;;6.20;92.50;;;;;;5030432;28;20039;-73
2020/12/03 06:36:17;;;;;;;28.45;22.55;;;6.20;92.50;;;;;;4978750;28;20400;-73
2020/12/03 06:39:42;;;;;;;29.00;23.23;;;6.20;92.50;;;;;;5018145;28;20053;-78
2020/12/03 06:42:22;;;;;;;28.80;23.00;;;6.20;92.50;;;;;;4935262;28;20047;-73
2020/12/03 06:45:03;;;;;;;28.75;21.92;;;6.20;92.50;;;;;;4926775;28;20048;-76
2020/12/03 06:48:19;;;;;;;30.17;22.20;;;6.20;92.50;;;;;;4973824;28;20030;-74
2020/12/03 06:51:08;;;;;;;28.02;21.20;;;6.20;92.40;;;;;;5059972;28;20024;-74
2020/12/03 06:54:07;;;;;;;28.90;21.58;;;6.30;92.40;;;;;;5071489;28;20082;-74
2020/12/03 06:57:07;;;;;;;28.33;21.23;;;6.20;92.40;;;;;;4980127;28;20032;-72
2020/12/03 06:59:39;;;;;;;27.67;22.05;;;6.30;92.30;;;;;;4988971;28;20484;-73
2020/12/03 07:02:40;;;;;;;28.27;21.67;;;6.30;92.40;;;;;;4983953;28;20038;-73
2020/12/03 07:05:48;;;;;;;27.05;21.33;;;6.20;92.40;;;;;;4999005;28;20028;-75
2020/12/03 07:08:52;;;;;;;30.73;22.23;;;6.20;92.60;;;;;;5011335;28;20048;-72
2020/12/03 07:11:55;;;;;;;31.50;23.30;;;6.20;92.70;;;;;;4982977;28;20100;-73
2020/12/03 07:14:27;;;;;;;31.90;23.05;;;6.30;92.60;;;;;;4984857;28;20088;-72
2020/12/03 07:17:11;;;;;;;32.15;23.60;;;6.30;92.70;;;;;;5001915;28;20052;-73
2020/12/03 07:20:14;;;;;;;32.10;23.88;;;6.30;92.60;;;;;;4972131;28;20039;-73
2020/12/03 07:22:48;;;;;;;36.13;24.92;;;6.30;92.60;;;;;;4967901;28;20035;-72
2020/12/03 07:25:16;;;;;;;33.05;23.35;;;6.40;92.60;;;;;;4985997;28;20036;-72
2020/12/03 07:28:06;;;;;;;32.00;23.60;;;6.30;92.50;;;;;;5004920;28;20019;-72
2020/12/03 07:30:49;;;;;;;30.38;23.58;;;6.40;92.60;;;;;;5009914;28;20038;-72
2020/12/03 07:33:24;;;;;;;34.13;24.90;;;6.40;92.50;;;;;;4976229;28;20104;-76
2020/12/03 07:36:17;;;;;;;30.45;23.10;;;6.40;92.60;;;;;;4987220;28;20437;-73
2020/12/03 07:39:02;;;;;;;37.15;24.48;;;6.40;92.50;;;;;;4989773;28;20046;-73
2020/12/03 07:41:33;;;;;;;35.15;25.45;;;6.40;92.50;;;;;;5005977;28;20096;-72
2020/12/03 07:44:17;;;;;;;36.13;25.50;;;6.40;92.50;;;;;;4972369;28;20566;-73
2020/12/03 07:46:42;;;;;;;32.83;26.85;;;6.40;92.50;;;;;;4996945;28;20058;-80
2020/12/03 07:49:09;;;;;;;39.85;30.05;;;6.40;92.60;;;;;;4979874;28;20117;-72
2020/12/03 07:51:34;;;;;;;42.00;30.33;;;6.50;92.50;;;;;;4975184;28;20063;-74
2020/12/03 07:54:16;;;;;;;43.47;30.30;;;6.50;92.50;;;;;;4975742;28;20046;-76
2020/12/03 07:56:46;;;;;;;44.45;30.20;;;6.40;92.50;;;;;;5098462;27;20039;-75
2020/12/03 07:59:24;;;;;;;44.80;32.90;;;6.40;92.50;;;;;;5048017;27;20511;-73
2020/12/03 08:01:55;;;;;;;49.55;33.58;;;6.40;92.50;;;;;;4977545;28;20504;-73
2020/12/03 08:04:33;;;;;;;48.03;32.97;;;6.50;92.50;;;;;;4986139;28;20053;-72
2020/12/03 08:07:07;;;;;;;46.88;31.45;;;6.50;92.50;;;;;;5021049;28;20033;-75
2020/12/03 08:09:59;;;;;;;45.70;32.45;;;6.50;92.40;;;;;;4970628;28;20153;-72
2020/12/03 08:12:28;;;;;;;44.13;32.50;;;6.50;92.50;;;;;;4990015;28;20096;-72
2020/12/03 08:14:55;;;;;;;47.20;31.95;;;6.50;92.50;;;;;;4976246;28;20046;-78
2020/12/03 08:17:21;;;;;;;44.53;31.75;;;6.50;92.50;;;;;;4981013;28;20043;-73
2020/12/03 08:20:08;;;;;;;51.65;32.33;;;6.60;92.40;;;;;;4984358;28;20358;-73
2020/12/03 08:22:39;;;;;;;46.42;31.98;;;6.50;92.30;;;;;;4971079;28;20474;-70
2020/12/03 08:25:09;;;;;;;48.58;31.77;;;6.60;92.30;;;;;;4982426;28;20089;-69
2020/12/03 08:27:35;;;;;;;52.00;33.17;;;6.60;92.40;;;;;;5027111;28;20529;-75
2020/12/03 08:30:01;;;;;;;47.28;32.88;;;6.60;92.40;;;;;;4968498;28;20089;-69
2020/12/03 08:32:46;;;;;;;47.45;32.05;;;6.50;92.30;;;;;;4977815;28;20182;-69
2020/12/03 08:35:12;;;;;;;47.22;29.23;;;6.60;92.40;;;;;;4989963;28;20470;-72
2020/12/03 08:37:38;;;;;;;45.80;31.50;;;6.60;92.20;;;;;;5017483;28;20050;-71
2020/12/03 08:40:03;;;;;;;47.20;31.13;;;6.60;92.10;;;;;;4999047;28;20495;-69
2020/12/03 08:42:29;;;;;;;41.60;28.00;;;6.60;92.20;;;;;;5010601;28;20046;-70
2020/12/03 08:44:56;;;;;;;43.95;29.02;;;6.60;92.20;;;;;;4986917;28;20089;-69
2020/12/03 08:47:45;;;;;;;42.00;28.88;;;6.60;92.20;;;;;;4994000;28;20031;-69
2020/12/03 08:50:15;;;;;;;40.55;27.67;;;6.60;92.20;;;;;;5014055;28;20374;-69
2020/12/03 08:52:42;;;;;;;41.45;27.60;;;6.60;92.10;;;;;;4988029;28;20087;-71
2020/12/03 08:55:09;;;;;;;39.45;26.52;;;6.60;92.10;;;;;;4997685;28;20114;-71
2020/12/03 08:57:40;;;;;;;37.65;24.73;;;6.60;92.00;;;;;;4997143;28;20053;-70
2020/12/03 09:00:10;;;;;;;36.70;26.00;;;6.60;92.00;;;;;;4994021;28;20028;-71
2020/12/03 09:02:36;;;;;;;39.38;24.70;;;6.70;92.00;;;;;;4988808;28;20049;-69
2020/12/03 09:05:03;;;;;;;39.45;25.02;;;6.70;92.00;;;;;;4972743;28;20074;-71
2020/12/03 09:07:34;;;;;;;36.42;24.25;;;6.70;91.90;;;;;;4981581;28;20035;-72
2020/12/03 09:10:02;;;;;;;32.47;22.67;;;6.70;91.90;;;;;;4989959;28;20035;-71
2020/12/03 09:12:31;;;;;;;37.08;24.13;;;6.70;91.80;;;;;;4972467;28;20043;-71
2020/12/03 09:15:02;;;;;;;34.30;24.58;;;6.70;91.80;;;;;;4972965;28;20030;-70
2020/12/03 09:17:30;;;;;;;35.63;25.40;;;6.70;91.80;;;;;;4985388;28;20562;-71
2020/12/03 09:20:09;;;;;;;34.35;24.23;;;6.70;91.70;;;;;;4984438;28;20035;-71
2020/12/03 09:22:37;;;;;;;35.17;23.67;;;6.70;91.70;;;;;;4995786;28;20086;-71
2020/12/03 09:25:05;;;;;;;31.05;22.38;;;6.80;91.60;;;;;;4974349;28;20351;-73
2020/12/03 09:27:36;;;;;;;35.33;24.27;;;6.80;91.40;;;;;;4979450;28;20023;-70
2020/12/03 09:30:04;;;;;;;35.63;23.00;;;6.80;91.30;;;;;;4990747;28;20087;-72
2020/12/03 09:32:31;;;;;;;34.00;23.00;;;6.80;91.30;;;;;;4979074;28;20366;-71
2020/12/03 09:34:57;;;;;;;34.25;22.08;;;6.80;91.20;;;;;;4975039;28;20438;-76
2020/12/03 09:37:23;;;;;;;33.38;22.60;;;6.90;91.20;;;;;;4997537;28;20037;-70
2020/12/03 09:39:50;;;;;;;30.25;20.15;;;6.90;91.10;;;;;;4995035;28;20543;-71
2020/12/03 09:42:16;;;;;;;34.03;21.55;;;6.90;91.10;;;;;;4992823;28;20047;-71
2020/12/03 09:44:46;;;;;;;32.58;22.30;;;7.00;91.10;;;;;;4992688;28;20067;-72
2020/12/03 09:47:18;;;;;;;31.80;21.55;;;7.00;90.80;;;;;;4986828;28;20130;-75
2020/12/03 09:49:46;;;;;;;29.45;20.00;;;7.00;90.90;;;;;;4995251;28;20028;-69
2020/12/03 09:52:13;;;;;;;32.58;21.17;;;6.90;90.80;;;;;;4983919;28;20489;-70
2020/12/03 09:54:40;;;;;;;32.20;21.00;;;7.00;90.70;;;;;;5052441;28;20035;-71
2020/12/03 09:57:09;;;;;;;34.22;20.67;;;7.00;90.50;;;;;;4982828;28;20069;-70
2020/12/03 09:59:37;;;;;;;31.73;20.20;;;7.00;90.60;;;;;;4986610;28;20042;-73
2020/12/03 10:02:31;;;;;;;30.50;20.15;;;7.00;90.40;;;;;;5026663;28;20040;-71
2020/12/03 10:05:02;;;;;;;29.63;20.88;;;7.00;90.30;;;;;;4985677;28;20042;-75
2020/12/03 10:07:55;;;;;;;35.38;20.90;;;7.00;90.20;;;;;;4971892;28;20084;-72
2020/12/03 10:10:46;;;;;;;28.23;19.45;;;7.00;90.20;;;;;;4978274;28;20042;-70
2020/12/03 10:13:46;;;;;;;27.70;18.63;;;7.10;90.00;;;;;;4980752;28;20035;-71
2020/12/03 10:16:21;;;;;;;27.85;18.75;;;7.10;89.90;;;;;;4978626;28;20034;-70
2020/12/03 10:18:50;;;;;;;30.40;18.13;;;7.10;89.60;;;;;;4974576;28;20042;-72
2020/12/03 10:21:23;;;;;;;27.95;17.15;;;7.10;89.60;;;;;;5002229;28;20038;-72
2020/12/03 10:24:07;;;;;;;23.65;16.38;;;7.10;89.40;;;;;;5038583;28;20066;-71
2020/12/03 10:26:39;;;;;;;23.40;16.90;;;7.10;89.40;;;;;;4986184;28;20050;-74
2020/12/03 10:29:40;;;;;;;23.08;16.10;;;7.10;89.10;;;;;;4985676;28;20107;-71
2020/12/03 10:32:15;;;;;;;23.85;16.60;;;7.10;89.00;;;;;;4986939;28;20491;-71
2020/12/03 10:34:46;;;;;;;;;;;7.10;88.80;;;;;;4977486;28;20469;-70
2020/12/03 10:37:24;;;;;;;24.67;15.57;;;7.10;88.60;;;;;;4973885;28;19918;-71
2020/12/03 10:39:53;;;;;;;28.08;15.38;;;7.00;88.70;;;;;;4980113;28;20066;-79
2020/12/03 10:42:21;;;;;;;21.92;14.88;;;7.10;88.60;;;;;;5000897;28;20070;-70
2020/12/03 10:44:52;;;;;;;21.45;13.85;;;7.10;88.60;;;;;;5000131;28;20084;-71
2020/12/03 10:47:21;;;;;;;22.38;14.95;;;7.10;88.50;;;;;;5040893;28;20039;-71
2020/12/03 10:49:47;;;;;;;23.17;14.45;;;7.10;88.40;;;;;;4976454;28;20550;-72
2020/12/03 10:52:14;;;;;;;25.92;14.55;;;7.10;88.30;;;;;;4997441;28;20035;-74
2020/12/03 10:54:40;;;;;;;20.23;14.13;;;7.10;88.10;;;;;;4985171;28;20073;-71
2020/12/03 10:57:19;;;;;;;22.92;14.80;;;7.10;88.20;;;;;;5006910;28;20038;-71
2020/12/03 10:59:45;;;;;;;22.15;14.85;;;7.10;88.10;;;;;;4979260;28;20525;-73
2020/12/03 11:02:40;;;;;;;25.02;14.68;;;7.10;88.00;;;;;;4982390;28;20126;-71
2020/12/03 11:05:08;;;;;;;22.58;14.68;;;7.10;88.00;;;;;;4984157;28;20062;-71
2020/12/03 11:07:35;;;;;;;22.52;13.68;;;7.10;87.90;;;;;;4978403;28;20030;-70
2020/12/03 11:10:03;;;;;;;18.75;13.80;;;7.10;87.90;;;;;;4987505;28;20030;-71
2020/12/03 11:12:29;;;;;;;20.55;14.38;;;7.10;87.90;;;;;;4976873;28;20496;-70
2020/12/03 11:15:05;;;;;;;21.17;14.98;;;7.10;88.10;;;;;;4981482;28;20035;-71
2020/12/03 11:17:31;;;;;;;22.02;14.43;;;7.10;88.30;;;;;;4987726;28;20034;-72
2020/12/03 11:19:58;;;;;;;23.02;15.57;;;7.10;88.50;;;;;;4970767;28;20038;-70
2020/12/03 11:22:43;;;;;;;20.55;15.25;;;7.10;88.80;;;;;;4981333;28;20123;-70
2020/12/03 11:25:13;;;;;;;23.05;14.57;;;7.10;88.90;;;;;;4979348;28;20410;-70
2020/12/03 11:27:42;;;;;;;22.75;15.82;;;7.00;89.10;;;;;;4981382;28;20572;-71
2020/12/03 11:30:13;;;;;;;22.95;15.27;;;7.00;89.30;;;;;;4978965;28;20034;-70
2020/12/03 11:32:49;;;;;;;25.65;16.20;;;7.10;89.40;;;;;;4982796;28;20050;-70
2020/12/03 11:35:34;;;;;;;26.67;15.65;;;7.00;89.50;;;;;;4989370;28;20050;-71
2020/12/03 11:38:04;;;;;;;26.58;15.35;;;7.00;89.60;;;;;;4977031;28;20038;-71
2020/12/03 11:43:28;;;;;;;27.73;16.93;;;6.90;89.80;;;;;;5001238;28;20401;-71
2020/12/03 11:48:39;;;;;;;29.00;17.35;;;6.90;89.70;;;;;;4988840;28;20039;-72
2020/12/03 11:51:05;;;;;;;26.95;17.77;;;6.90;89.90;;;;;;4986219;28;20039;-71
2020/12/03 11:53:32;;;;;;;27.85;17.60;;;6.90;90.00;;;;;;4993413;28;20049;-71
2020/12/03 11:55:57;;;;;;;24.27;15.88;;;6.90;90.10;;;;;;4976759;28;20025;-71
2020/12/03 11:58:30;;;;;;;28.35;17.15;;;6.90;90.00;;;;;;4971637;28;20035;-75
2020/12/03 12:01:12;;;;;;;21.58;14.50;;;6.90;89.80;;;;;;4986695;28;20386;-72
2020/12/03 12:03:40;;;;;;;23.67;14.60;;;6.90;89.70;;;;;;4983377;28;20043;-71
2020/12/03 12:06:19;;;;;;;25.27;16.27;;;6.80;89.60;;;;;;4966437;28;20035;-72
2020/12/03 12:08:56;;;;;;;24.23;13.60;;;6.90;89.90;;;;;;4967733;28;20481;-71
2020/12/03 12:11:31;;;;;;;21.48;13.50;;;6.70;89.60;;;;;;4980730;28;20142;-71
2020/12/03 12:13:57;;;;;;;23.33;13.63;;;6.70;89.70;;;;;;4972881;28;20045;-71
2020/12/03 12:16:22;;;;;;;21.52;13.43;;;6.70;89.70;;;;;;4993021;28;20035;-70
2020/12/03 12:18:48;;;;;;;24.83;14.98;;;6.70;89.70;;;;;;4982971;28;20248;-73
2020/12/03 12:21:14;;;;;;;21.55;13.93;;;6.70;89.70;;;;;;4975244;28;20478;-71
2020/12/03 12:23:40;;;;;;;18.80;12.73;;;6.80;89.60;;;;;;4980326;28;20066;-71
2020/12/03 12:26:05;;;;;;;25.00;13.60;;;6.80;89.70;;;;;;4980907;28;20031;-70
2020/12/03 12:28:31;;;;;;;19.75;14.68;;;6.80;89.50;;;;;;4977271;28;20061;-71
2020/12/03 12:30:56;;;;;;;22.08;14.82;;;6.70;89.50;;;;;;4978947;28;20047;-73
2020/12/03 12:33:22;;;;;;;22.90;14.00;;;6.80;89.70;;;;;;4977478;28;20035;-71
2020/12/03 12:35:48;;;;;;;23.73;13.27;;;6.70;89.70;;;;;;4977435;28;20125;-69
2020/12/03 12:38:14;;;;;;;22.42;14.40;;;6.70;89.70;;;;;;4967869;28;20478;-70
2020/12/03 12:40:40;;;;;;;20.95;13.68;;;6.70;89.70;;;;;;4976253;28;20078;-74
2020/12/03 12:43:06;;;;;;;20.55;13.57;;;6.70;89.80;;;;;;5003967;28;20046;-70
2020/12/03 12:45:31;;;;;;;19.85;12.93;;;6.80;89.90;;;;;;4983592;28;20540;-70
2020/12/03 12:47:57;;;;;;;23.70;12.55;;;6.70;89.80;;;;;;4993529;28;20474;-74
2020/12/03 12:50:23;;;;;;;20.73;12.27;;;6.70;89.60;;;;;;5001056;28;20528;-72
2020/12/03 12:52:49;;;;;;;19.80;11.85;;;6.60;89.30;;;;;;4968881;28;20031;-74
2020/12/03 12:55:15;;;;;;;19.52;11.13;;;6.60;89.40;;;;;;5008513;28;20378;-71
2020/12/03 12:57:40;;;;;;;21.27;11.95;;;6.70;89.30;;;;;;4975738;28;20337;-77
2020/12/03 13:00:07;;;;;;;22.63;11.13;;;6.60;89.30;;;;;;4983137;28;20050;-76
2020/12/03 13:02:32;;;;;;;20.35;11.52;;;6.60;89.40;;;;;;4980854;28;20277;-70
2020/12/03 13:04:58;;;;;;;18.23;11.75;;;6.70;89.30;;;;;;4978292;28;20105;-71
2020/12/03 13:07:24;;;;;;;23.80;12.32;;;6.70;89.20;;;;;;4973760;28;20038;-74
2020/12/03 13:09:49;;;;;;;20.33;12.00;;;6.70;89.30;;;;;;4969586;28;20125;-75